Pagina principale
METAR-TAF:

METAR-TAF

Aeroporti :

Aeroporto di Reykjavík

Reykjavík, Islanda

latitudine: 64-08N, longitudine: 021-54W, altezza: 54 m

Osservazione

Il bollettino è stato emesso 56 minuti fa, alle 22:00 UTC
Vento 7 kt da nord-ovest
Temperature 11°C
Umidità 76%
Pressione 991 hPa
Visibilità 10 km o più
Poco nuvoloso ad un'altezza di 3300 ft

METAR: BIRK 152200Z 31007KT 9999 FEW033 11/07 Q0991

Ora: 22:56 (22:56 UTC)

Previsione

Il bollettino è stato emesso 3 ore e 19 minuti fa, alle 19:37 UTC
Previsione valida dal 15 alle 21 UTC al 16 alle 21 UTC
Vento 10 kt da nord/nord-ovest
Visibilità 10 km o più
Poco nuvoloso ad un'altezza di 2500 ft
Nubi sparse ad un'altezza di 4000 ft
Temporaneamente
dal 16 alle 02 UTC al 16 alle 07 UTC
Nuvoloso ad un'altezza di 1500 ft

TAF: BIRK 151937Z 1521/1621 34010KT 9999 FEW025 SCT040 TX15/1615Z TN09/1606Z TEMPO 1602/1607 BKN015

Osservazioni e previsioni meteorologiche di più di 4000 aeroporti (messaggi METAR e TAF).

Le stazioni disponibili sono rappresentate dai dischi gialli e rossi sulla carta.

Puntare il mouse per vedere il nome della stazione.

Clicca sopra per visualizzare le osservazioni e previsioni meteorologiche.

Per cambiare la mappa : fare clic sui pulsanti verdi con una croce nera per ingrandire, il pulsante verde con un trattino per diminuire, o sulla freccia verde per le mappe adiacenti.


METAR-TAF: